Time;durP1;ratioP1;P1;durP2;ratioP2;P2;SDS_P1;SDS_P2;PMS_P1;PMS_P2;Temp;Humidity;BMP_temperature;BMP_pressure;BME280_temperature;BME280_humidity;BME280_pressure;Samples;Min_cycle;Max_cycle;Signal;HPM_P1;HPM_P2
2023/07/24 00:01:59;;;;;;;3.15;2.70;;;;;;;18.03;100.00;100332.69;5009482;28;20113;-77
2023/07/24 00:04:26;;;;;;;4.07;2.70;;;;;;;18.06;100.00;100345.00;4990467;28;20042;-77
2023/07/24 00:06:54;;;;;;;3.50;2.53;;;;;;;18.05;100.00;100335.28;4993206;28;20045;-77
2023/07/24 00:09:21;;;;;;;4.20;2.67;;;;;;;18.04;100.00;100337.06;4992674;28;20097;-77
2023/07/24 00:11:48;;;;;;;3.22;2.30;;;;;;;18.05;100.00;100344.13;5010595;28;20046;-77
2023/07/24 00:14:17;;;;;;;4.20;2.70;;;;;;;18.06;100.00;100337.00;4991288;28;20081;-77
2023/07/24 00:16:44;;;;;;;6.90;2.40;;;;;;;18.06;100.00;100329.81;5006406;28;20465;-77
2023/07/24 00:19:11;;;;;;;4.47;2.55;;;;;;;18.10;100.00;100330.47;5012346;28;20110;-77
2023/07/24 00:21:38;;;;;;;3.80;2.60;;;;;;;18.10;100.00;100323.34;5006292;28;20057;-76
2023/07/24 00:24:05;;;;;;;4.40;2.50;;;;;;;18.10;100.00;100326.00;4995122;28;20120;-76
2023/07/24 00:26:32;;;;;;;3.35;2.50;;;;;;;18.09;100.00;100336.75;4992600;28;20066;-79
2023/07/24 00:29:00;;;;;;;4.53;2.50;;;;;;;18.06;100.00;100324.50;4977548;28;20050;-78
2023/07/24 00:31:27;;;;;;;2.60;2.33;;;;;;;18.06;100.00;100323.66;5003976;28;20044;-76
2023/07/24 00:33:54;;;;;;;3.42;2.58;;;;;;;18.03;100.00;100315.88;5008031;28;20096;-76
2023/07/24 00:36:21;;;;;;;3.63;2.40;;;;;;;18.00;100.00;100311.59;5009525;28;20522;-77
2023/07/24 00:38:49;;;;;;;4.55;2.13;;;;;;;17.96;100.00;100308.28;5008838;28;20054;-76
2023/07/24 00:41:16;;;;;;;3.13;2.30;;;;;;;17.92;100.00;100305.91;4991903;28;20410;-76
2023/07/24 00:43:43;;;;;;;4.00;2.28;;;;;;;17.90;100.00;100303.34;4991388;28;20057;-77
2023/07/24 00:46:11;;;;;;;4.72;2.50;;;;;;;17.88;100.00;100305.25;5007511;28;20050;-78
2023/07/24 00:48:39;;;;;;;4.35;2.63;;;;;;;17.87;100.00;100290.22;5006146;28;20111;-77
2023/07/24 00:51:07;;;;;;;3.40;2.53;;;;;;;17.87;100.00;100294.72;4990700;28;20049;-76
2023/07/24 00:53:34;;;;;;;3.65;2.83;;;;;;;17.85;100.00;100297.50;4988708;28;20046;-77
2023/07/24 00:56:02;;;;;;;4.55;3.00;;;;;;;17.84;100.00;100309.13;4989840;28;20109;-78
2023/07/24 00:58:30;;;;;;;4.18;2.72;;;;;;;17.81;100.00;100294.16;5004265;28;20046;-77
2023/07/24 01:00:58;;;;;;;4.35;2.83;;;;;;;17.81;100.00;100290.66;5001635;28;20061;-78
2023/07/24 01:03:34;;;;;;;4.25;2.90;;;;;;;17.82;100.00;100289.69;4976720;28;20045;-78
2023/07/24 01:06:03;;;;;;;4.55;2.90;;;;;;;17.80;100.00;100283.63;5012992;28;20045;-77
2023/07/24 01:08:31;;;;;;;5.60;3.55;;;;;;;17.79;100.00;100281.91;4989437;28;20092;-77
2023/07/24 01:11:11;;;;;;;4.18;3.22;;;;;;;17.80;100.00;100280.94;4991307;28;20037;-77
2023/07/24 01:13:52;;;;;;;6.05;3.25;;;;;;;17.79;100.00;100281.91;4990442;28;20551;-77
2023/07/24 01:16:29;;;;;;;4.45;3.22;;;;;;;17.79;100.00;100273.91;5008078;28;20128;-76
2023/07/24 01:19:03;;;;;;;5.05;3.58;;;;;;;17.81;100.00;100272.00;4985991;28;20046;-76
2023/07/24 01:22:02;;;;;;;7.40;3.20;;;;;;;17.82;100.00;100261.22;4987423;28;20517;-75
2023/07/24 01:24:44;;;;;;;5.97;3.38;;;;;;;17.81;100.00;100267.50;4969574;28;20082;-77
2023/07/24 01:27:21;;;;;;;4.63;3.28;;;;;;;17.82;100.00;100263.03;5005684;28;20053;-76
2023/07/24 01:29:48;;;;;;;5.50;3.58;;;;;;;17.82;100.00;100257.72;5001696;28;20057;-76
2023/07/24 01:32:15;;;;;;;5.53;3.53;;;;;;;17.82;100.00;100255.88;5007884;28;20517;-75
2023/07/24 01:34:42;;;;;;;7.25;4.10;;;;;;;17.83;100.00;100246.94;4987212;28;20041;-76
2023/07/24 01:37:12;;;;;;;6.07;4.03;;;;;;;17.83;100.00;100248.75;5005639;28;20464;-76
2023/07/24 01:39:45;;;;;;;4.55;3.17;;;;;;;17.83;100.00;100246.94;5015397;28;20504;-76
2023/07/24 01:42:13;;;;;;;8.65;3.70;;;;;;;17.84;100.00;100239.81;4988707;28;20050;-78
2023/07/24 01:44:41;;;;;;;6.75;3.97;;;;;;;17.84;100.00;100237.13;4989105;28;20054;-80
2023/07/24 01:47:09;;;;;;;6.38;3.70;;;;;;;17.85;100.00;100238.84;4993677;28;20497;-80
2023/07/24 01:49:37;;;;;;;6.53;4.18;;;;;;;17.84;100.00;100232.63;4987450;28;20405;-79
2023/07/24 01:52:04;;;;;;;6.63;4.50;;;;;;;17.85;100.00;100230.84;4987215;28;20045;-79
2023/07/24 01:54:31;;;;;;;8.18;4.40;;;;;;;17.82;100.00;100229.22;4988876;28;20545;-83
2023/07/24 01:56:59;;;;;;;6.05;4.32;;;;;;;17.81;100.00;100226.69;5008314;28;20063;-78
2023/07/24 01:59:26;;;;;;;10.82;4.85;;;;;;;17.78;100.00;100213.56;4986348;28;20050;-79
2023/07/24 02:01:53;;;;;;;11.95;4.97;;;;;;;17.76;100.00;100218.13;4991785;28;20536;-83
2023/07/24 02:04:22;;;;;;;9.82;4.95;;;;;;;17.76;100.00;100223.47;4986187;28;20129;-78
2023/07/24 02:06:49;;;;;;;7.40;5.03;;;;;;;17.75;100.00;100221.78;4988543;28;20041;-79
2023/07/24 02:09:20;;;;;;;9.20;5.00;;;;;;;17.75;100.00;100219.97;4997239;28;20057;-79
2023/07/24 02:11:47;;;;;;;10.85;5.65;;;;;;;17.76;100.00;100220.81;4988272;28;20054;-80
2023/07/24 02:14:18;;;;;;;9.57;5.05;;;;;;;17.74;100.00;100215.59;4986507;28;20038;-83
2023/07/24 02:16:45;;;;;;;6.72;4.78;;;;;;;17.73;100.00;100205.88;5006630;28;20516;-77
2023/07/24 02:19:12;;;;;;;7.78;4.60;;;;;;;17.75;100.00;100206.63;5002744;28;20050;-78
2023/07/24 02:21:40;;;;;;;6.80;4.80;;;;;;;17.76;100.00;100202.13;5011542;28;20050;-78
2023/07/24 02:24:07;;;;;;;6.43;4.22;;;;;;;17.78;100.00;100200.22;4972735;28;20470;-77
2023/07/24 02:26:35;;;;;;;5.78;3.65;;;;;;;17.79;100.00;100204.59;4988870;28;20133;-78
2023/07/24 02:29:02;;;;;;;6.20;3.85;;;;;;;17.80;100.00;100206.31;5006989;28;20038;-82
2023/07/24 02:31:29;;;;;;;7.75;4.18;;;;;;;17.80;100.00;100198.31;5008870;28;20046;-80
2023/07/24 02:33:56;;;;;;;8.65;4.00;;;;;;;17.79;100.00;100188.59;4990138;28;20038;-79
2023/07/24 02:36:23;;;;;;;7.32;4.05;;;;;;;17.76;100.00;100187.03;4975662;28;20049;-79
2023/07/24 02:38:51;;;;;;;7.78;3.90;;;;;;;17.74;100.00;100188.09;4994150;28;20127;-79
2023/07/24 02:41:18;;;;;;;5.95;3.90;;;;;;;17.71;100.00;100173.16;4989639;28;20046;-80
2023/07/24 02:43:45;;;;;;;7.90;3.80;;;;;;;17.68;100.00;100176.06;4986658;28;20100;-79
2023/07/24 02:46:12;;;;;;;4.50;3.40;;;;;;;17.66;100.00;100180.63;5010352;28;20045;-79
2023/07/24 02:48:39;;;;;;;5.70;3.95;;;;;;;17.65;100.00;100185.09;5010160;28;20126;-79
2023/07/24 02:51:06;;;;;;;5.68;3.90;;;;;;;17.67;100.00;100185.84;4992655;28;20045;-79
2023/07/24 02:53:33;;;;;;;5.97;4.15;;;;;;;17.67;100.00;100187.66;5011282;28;20050;-79
2023/07/24 02:56:02;;;;;;;6.53;4.65;;;;;;;17.68;100.00;100194.72;5009158;28;20042;-79
2023/07/24 02:58:29;;;;;;;6.88;4.82;;;;;;;17.68;100.00;100192.03;4991850;28;20042;-81
2023/07/24 03:01:07;;;;;;;9.45;4.85;;;;;;;17.68;100.00;100194.72;4993379;28;20046;-79
2023/07/24 03:03:34;;;;;;;8.80;5.00;;;;;;;17.65;100.00;100187.75;4994062;28;20052;-82
2023/07/24 03:06:02;;;;;;;9.85;4.97;;;;;;;17.66;100.00;100186.81;5012437;28;20520;-84
2023/07/24 03:08:29;;;;;;;10.82;5.38;;;;;;;17.62;100.00;100174.69;5002170;28;20042;-90
2023/07/24 03:10:56;;;;;;;10.00;5.50;;;;;;;17.61;100.00;100175.63;5001968;28;20046;-90
2023/07/24 03:13:23;;;;;;;7.60;5.40;;;;;;;17.57;100.00;100174.13;4999837;28;20104;-85
2023/07/24 03:15:56;;;;;;;7.90;5.47;;;;;;;17.55;100.00;100176.03;5014759;28;20034;-91
2023/07/24 03:18:23;;;;;;;9.68;5.60;;;;;;;17.56;100.00;100179.56;5004212;28;20042;-88
2023/07/24 03:20:51;;;;;;;13.15;6.07;;;;;;;17.56;100.00;100182.25;5017396;28;20042;-90
2023/07/24 03:23:20;;;;;;;13.05;5.88;;;;;;;17.54;100.00;100185.03;5013916;28;20053;-85
2023/07/24 03:25:47;;;;;;;10.05;5.90;;;;;;;17.52;100.00;100181.59;4998638;28;20045;-90
2023/07/24 03:28:14;;;;;;;8.30;5.40;;;;;;;17.51;100.00;100179.91;4986718;28;20046;-86
2023/07/24 03:30:43;;;;;;;10.43;5.78;;;;;;;17.45;100.00;100175.84;5014776;28;20042;-84
2023/07/24 03:33:12;;;;;;;9.70;5.63;;;;;;;17.42;100.00;100183.22;5007974;28;20139;-80
2023/07/24 03:35:39;;;;;;;10.40;5.00;;;;;;;17.39;100.00;100179.78;5011274;28;20080;-81
2023/07/24 03:38:06;;;;;;;5.28;3.85;;;;;;;17.38;100.00;100171.91;5010702;28;20629;-82
2023/07/24 03:40:33;;;;;;;5.93;3.97;;;;;;;17.34;100.00;100173.06;4994789;28;20112;-81
2023/07/24 03:43:00;;;;;;;6.75;3.60;;;;;;;17.30;100.00;100172.44;5005292;28;20610;-80
2023/07/24 03:45:27;;;;;;;4.35;2.83;;;;;;;17.28;100.00;100165.53;5006599;28;20034;-84
2023/07/24 03:47:54;;;;;;;4.72;2.97;;;;;;;17.24;100.00;100146.25;5001157;28;20065;-89
2023/07/24 03:50:22;;;;;;;3.63;2.65;;;;;;;17.20;100.00;100145.56;5016458;28;20041;-86
2023/07/24 03:52:49;;;;;;;5.03;2.42;;;;;;;17.17;100.00;100147.59;4981509;28;20413;-88
2023/07/24 03:55:17;;;;;;;4.50;2.75;;;;;;;17.13;100.00;100138.97;4999344;28;20073;-86
2023/07/24 03:57:44;;;;;;;3.40;2.50;;;;;;;17.12;100.00;100149.75;4993118;28;20507;-86
2023/07/24 04:00:12;;;;;;;5.80;2.90;;;;;;;17.11;100.00;100142.72;5008205;28;20068;-91
2023/07/24 04:02:39;;;;;;;6.30;3.40;;;;;;;17.09;100.00;100145.50;4992280;28;20109;-86
2023/07/24 04:05:07;;;;;;;3.70;2.92;;;;;;;17.10;100.00;100143.66;4989040;28;20052;-91
2023/07/24 04:07:37;;;;;;;5.15;3.35;;;;;;;17.10;100.00;100146.34;4989846;28;20044;-90
2023/07/24 04:10:05;;;;;;;6.07;3.65;;;;;;;17.12;100.00;100149.75;5012573;28;20042;-91
2023/07/24 04:12:32;;;;;;;5.50;3.72;;;;;;;17.13;100.00;100146.13;4998464;28;20042;-91
2023/07/24 04:14:59;;;;;;;6.20;3.60;;;;;;;17.13;100.00;100154.13;5012539;28;20576;-88
2023/07/24 04:17:26;;;;;;;6.75;3.95;;;;;;;17.10;100.00;100147.16;5017126;28;20045;-90
2023/07/24 04:19:53;;;;;;;5.47;3.67;;;;;;;17.09;100.00;100148.16;4998085;28;20125;-83
2023/07/24 04:22:20;;;;;;;7.40;4.07;;;;;;;17.10;100.00;100151.66;4990615;28;20367;-83
2023/07/24 04:24:48;;;;;;;5.07;3.92;;;;;;;17.09;100.00;100158.81;5008699;28;20046;-85
2023/07/24 04:27:15;;;;;;;6.35;3.97;;;;;;;17.10;100.00;100159.66;5009359;28;20577;-83
2023/07/24 04:29:49;;;;;;;8.15;4.65;;;;;;;17.08;100.00;100171.25;5005259;28;20046;-89
2023/07/24 04:32:17;;;;;;;5.25;4.07;;;;;;;17.05;100.00;100179.44;4991701;28;20042;-82
2023/07/24 04:34:46;;;;;;;5.15;3.53;;;;;;;16.95;100.00;100177.53;4991749;28;20112;-86
2023/07/24 04:37:13;;;;;;;4.13;2.83;;;;;;;16.86;100.00;100176.28;4991958;28;20048;-88
2023/07/24 04:39:40;;;;;;;3.67;3.15;;;;;;;16.74;100.00;100181.47;4980232;28;20058;-89
2023/07/24 04:42:07;;;;;;;4.03;3.00;;;;;;;16.70;100.00;100189.75;4979289;28;20042;-87
2023/07/24 04:44:37;;;;;;;3.80;3.15;;;;;;;16.66;100.00;100189.13;5013524;28;20077;-89
2023/07/24 04:47:07;;;;;;;5.40;3.05;;;;;;;16.61;100.00;100199.22;5009934;28;20042;-83
2023/07/24 04:49:34;;;;;;;4.18;3.30;;;;;;;16.60;100.00;100197.53;5008236;28;20546;-83
2023/07/24 04:52:01;;;;;;;4.57;3.38;;;;;;;16.57;100.00;100190.59;4990667;28;20038;-87
2023/07/24 04:54:29;;;;;;;5.97;3.70;;;;;;;16.55;100.00;100176.53;4989047;28;20046;-84
2023/07/24 04:56:56;;;;;;;6.03;4.00;;;;;;;16.51;100.00;100176.84;5003951;28;20038;-77
2023/07/24 04:59:23;;;;;;;4.78;3.75;;;;;;;16.46;100.00;100174.50;4980687;28;20042;-76
2023/07/24 05:01:51;;;;;;;6.10;3.67;;;;;;;16.44;100.00;100171.06;5007303;28;20066;-77
2023/07/24 05:04:18;;;;;;;5.10;3.50;;;;;;;16.39;100.00;100181.13;5007324;28;20042;-76
2023/07/24 05:06:45;;;;;;;4.82;3.95;;;;;;;16.32;100.00;100188.69;5007660;28;20076;-76
2023/07/24 05:09:12;;;;;;;5.18;3.83;;;;;;;16.29;100.00;100192.38;5007017;28;20045;-82
2023/07/24 05:11:41;;;;;;;6.57;4.00;;;;;;;16.31;100.00;100186.97;4990733;28;20498;-76
2023/07/24 05:14:08;;;;;;;4.88;4.25;;;;;;;16.30;100.00;100188.78;4982112;28;20050;-75
2023/07/24 05:16:35;;;;;;;6.20;4.03;;;;;;;16.30;100.00;100182.63;4985736;28;20077;-76
2023/07/24 05:19:03;;;;;;;6.20;4.10;;;;;;;16.29;100.00;100191.53;4987237;28;20038;-77
2023/07/24 05:21:30;;;;;;;8.77;4.57;;;;;;;16.30;100.00;100180.78;5007046;28;20042;-77
2023/07/24 05:23:57;;;;;;;6.20;4.50;;;;;;;16.30;100.00;100178.13;5007004;28;20054;-76
2023/07/24 05:26:24;;;;;;;8.88;5.15;;;;;;;16.33;100.00;100192.19;5006347;28;20422;-77
2023/07/24 05:28:52;;;;;;;7.80;5.13;;;;;;;16.35;100.00;100196.44;5004878;28;20129;-77
2023/07/24 05:31:20;;;;;;;10.48;5.70;;;;;;;16.39;100.00;100207.75;5005040;28;20053;-77
2023/07/24 05:33:47;;;;;;;7.78;5.00;;;;;;;16.43;100.00;100194.13;5007839;28;20124;-76
2023/07/24 05:36:14;;;;;;;7.47;4.70;;;;;;;16.46;100.00;100193.09;4977389;28;20046;-76
2023/07/24 05:38:41;;;;;;;8.77;5.20;;;;;;;16.45;100.00;100200.22;5003638;28;20065;-76
2023/07/24 05:41:08;;;;;;;11.18;5.28;;;;;;;16.46;100.00;100188.63;4999551;28;20515;-76
2023/07/24 05:43:35;;;;;;;9.93;5.75;;;;;;;16.49;100.00;100192.88;4997891;28;20054;-76
2023/07/24 05:46:02;;;;;;;6.10;4.80;;;;;;;16.51;100.00;100198.97;4980784;28;20042;-76
2023/07/24 05:48:29;;;;;;;10.07;5.85;;;;;;;16.53;100.00;100207.72;5015682;28;20445;-75
2023/07/24 05:50:56;;;;;;;10.10;5.72;;;;;;;16.57;100.00;100216.34;5011806;28;20108;-75
2023/07/24 05:53:24;;;;;;;8.27;6.00;;;;;;;16.59;100.00;100219.75;5005639;28;20049;-75
2023/07/24 05:56:01;;;;;;;8.02;5.78;;;;;;;16.63;100.00;100213.28;4996212;28;20049;-75
2023/07/24 05:58:29;;;;;;;8.70;5.90;;;;;;;16.65;100.00;100210.53;5003440;28;20111;-75
2023/07/24 06:00:58;;;;;;;8.70;6.30;;;;;;;16.66;100.00;100205.09;4989818;28;20493;-75
2023/07/24 06:03:26;;;;;;;8.07;5.70;;;;;;;16.69;100.00;100202.22;5009597;28;20529;-75
2023/07/24 06:05:54;;;;;;;9.85;6.35;;;;;;;16.72;100.00;100204.69;5004614;28;20450;-76
2023/07/24 06:08:22;;;;;;;8.50;6.60;;;;;;;16.76;100.00;100205.34;4974931;28;20053;-75
2023/07/24 06:10:50;;;;;;;7.80;6.28;;;;;;;16.78;100.00;100206.09;4975168;28;20110;-75
2023/07/24 06:13:18;;;;;;;8.63;5.95;;;;;;;16.82;100.00;100207.59;4973756;28;20121;-72
2023/07/24 06:15:50;;;;;;;6.88;6.13;;;;;;;16.91;100.00;100204.31;5005865;28;20049;-75
2023/07/24 06:18:17;;;;;;;7.28;6.47;;;;;;;17.01;100.00;100201.94;5004883;28;20080;-76
2023/07/24 06:20:44;;;;;;;6.43;5.07;;;;;;;17.12;100.00;100203.00;4999065;28;20073;-72
2023/07/24 06:23:12;;;;;;;6.85;5.78;;;;;;;17.21;100.00;100210.38;5007213;28;20049;-72
2023/07/24 06:25:39;;;;;;;5.78;4.78;;;;;;;17.22;100.00;100214.75;5006459;28;20048;-73
2023/07/24 06:28:06;;;;;;;5.70;5.13;;;;;;;17.21;100.00;100208.53;4987656;28;20045;-72
2023/07/24 06:30:33;;;;;;;6.00;5.00;;;;;;;17.26;100.00;100208.22;4989143;28;20064;-73
2023/07/24 06:33:00;;;;;;;6.35;5.30;;;;;;;17.34;100.00;100210.38;5006921;28;20775;-72
2023/07/24 06:35:27;;;;;;;6.65;4.93;;;;;;;17.39;100.00;100218.91;5005893;28;20045;-72
2023/07/24 06:37:54;;;;;;;8.38;5.20;;;;;;;17.41;100.00;100211.66;4990333;28;20042;-72
2023/07/24 06:40:21;;;;;;;9.48;5.22;;;;;;;17.45;100.00;100209.66;4989078;28;20050;-72
2023/07/24 06:42:49;;;;;;;5.47;4.82;;;;;;;17.47;100.00;100216.56;5006496;28;20167;-72
2023/07/24 06:45:16;;;;;;;7.53;6.47;;;;;;;17.51;100.00;100219.88;5007374;28;20045;-72
2023/07/24 06:47:44;;;;;;;7.70;5.70;;;;;;;17.51;100.00;100223.38;5003956;28;20053;-77
2023/07/24 06:50:11;;;;;;;6.95;5.97;;;;;;;17.56;100.00;100217.72;4990394;28;20046;-77
2023/07/24 06:52:38;;;;;;;9.25;6.63;;;;;;;17.67;100.00;100217.00;5006890;28;20049;-76
2023/07/24 06:55:06;;;;;;;9.50;7.35;;;;;;;17.79;100.00;100217.94;4975113;28;20108;-77
2023/07/24 06:57:34;;;;;;;9.05;7.15;;;;;;;17.97;100.00;100219.31;4989103;28;20682;-75
2023/07/24 07:00:02;;;;;;;14.25;8.60;;;;;;;18.07;100.00;100219.53;5004541;28;20116;-77
2023/07/24 07:02:29;;;;;;;10.65;7.95;;;;;;;18.06;100.00;100217.81;5004341;28;20129;-76
2023/07/24 07:04:56;;;;;;;13.45;7.70;;;;;;;18.23;100.00;100227.28;4991661;28;20068;-77
2023/07/24 07:07:23;;;;;;;8.68;7.40;;;;;;;18.42;100.00;100234.78;5005969;28;20448;-77
2023/07/24 07:09:53;;;;;;;9.85;7.68;;;;;;;18.52;100.00;100226.97;5004200;28;20133;-76
2023/07/24 07:12:20;;;;;;;9.10;7.22;;;;;;;18.52;100.00;100229.63;5008425;28;20112;-76
2023/07/24 07:14:48;;;;;;;10.13;7.03;;;;;;;18.50;100.00;100225.38;5009285;28;20084;-76
2023/07/24 07:17:15;;;;;;;8.43;6.32;;;;;;;18.49;100.00;100229.84;5012110;28;20042;-77
2023/07/24 07:19:42;;;;;;;7.47;6.28;;;;;;;18.42;100.00;100226.78;5022480;28;20051;-77
2023/07/24 07:22:09;;;;;;;9.50;6.95;;;;;;;18.39;100.00;100228.81;5012480;28;20053;-76
2023/07/24 07:24:37;;;;;;;8.15;6.47;;;;;;;18.33;100.00;100218.59;5008963;28;20050;-76
2023/07/24 07:27:04;;;;;;;8.68;7.03;;;;;;;18.33;100.00;100219.44;5011561;28;20038;-74
2023/07/24 07:29:31;;;;;;;10.50;7.50;;;;;;;18.30;100.00;100222.34;4990850;28;21443;-75
2023/07/24 07:31:58;;;;;;;9.95;7.85;;;;;;;18.20;100.00;100222.16;5007699;28;20042;-77
2023/07/24 07:34:26;;;;;;;10.07;7.72;;;;;;;18.13;100.00;100221.75;5010617;28;20494;-78
2023/07/24 07:36:53;;;;;;;10.50;7.93;;;;;;;18.17;100.00;100235.69;5011117;28;20120;-80
2023/07/24 07:39:20;;;;;;;12.23;9.18;;;;;;;18.16;100.00;100236.69;5008687;28;20117;-79
2023/07/24 07:41:47;;;;;;;13.02;9.60;;;;;;;18.20;100.00;100232.00;5010021;28;20073;-79
2023/07/24 07:44:27;;;;;;;10.90;8.88;;;;;;;18.25;100.00;100228.03;5009688;28;20155;-80
2023/07/24 07:46:54;;;;;;;12.15;9.38;;;;;;;18.31;100.00;100229.41;5009180;28;20045;-79
2023/07/24 07:49:21;;;;;;;12.13;10.00;;;;;;;18.31;100.00;100227.56;4995935;28;20494;-80
2023/07/24 07:51:49;;;;;;;10.18;9.15;;;;;;;18.30;100.00;100227.69;4994583;28;20403;-79
2023/07/24 07:54:16;;;;;;;11.48;9.18;;;;;;;18.38;100.00;100217.31;4991792;28;20070;-80
2023/07/24 07:56:43;;;;;;;14.45;9.43;;;;;;;18.49;100.00;100221.84;5011672;28;20034;-79
2023/07/24 07:59:10;;;;;;;13.70;9.25;;;;;;;18.56;100.00;100222.25;5010500;28;20041;-79
2023/07/24 08:01:39;;;;;;;13.85;9.48;;;;;;;18.59;100.00;100219.34;5014365;28;20050;-78
2023/07/24 08:04:06;;;;;;;14.05;8.80;;;;;;;18.60;100.00;100223.72;4999088;28;20081;-77
2023/07/24 08:06:33;;;;;;;14.52;9.35;;;;;;;18.60;100.00;100219.22;4990494;28;20455;-78
2023/07/24 08:09:00;;;;;;;12.55;9.30;;;;;;;18.58;100.00;100212.31;5010479;28;20042;-78
2023/07/24 08:11:27;;;;;;;12.07;9.55;;;;;;;18.61;100.00;100209.44;4993607;28;20042;-77
2023/07/24 08:13:54;;;;;;;11.88;9.65;;;;;;;18.62;100.00;100214.63;5008370;28;20053;-75
2023/07/24 08:16:23;;;;;;;11.63;9.73;;;;;;;18.61;100.00;100215.59;4993066;28;20073;-73
2023/07/24 08:18:50;;;;;;;10.82;9.13;;;;;;;18.61;100.00;100201.41;5008490;28;20194;-76
2023/07/24 08:21:17;;;;;;;10.63;9.13;;;;;;;18.71;100.00;100212.25;4989068;28;20042;-77
2023/07/24 08:23:44;;;;;;;12.13;8.80;;;;;;;18.99;100.00;100211.06;4983269;28;20057;-77
2023/07/24 08:26:11;;;;;;;8.80;7.13;;;;;;;19.33;98.67;100211.13;4990374;28;20046;-77
2023/07/24 08:28:42;;;;;;;10.07;6.63;;;;;;;19.66;98.14;100208.63;5009360;28;20050;-76
2023/07/24 08:31:09;;;;;;;6.93;5.63;;;;;;;19.90;94.39;100210.34;4995005;28;20054;-76
2023/07/24 08:33:36;;;;;;;5.00;4.50;;;;;;;19.90;91.91;100199.66;4993151;28;20049;-78
2023/07/24 08:36:06;;;;;;;5.43;3.70;;;;;;;19.89;91.58;100211.34;5009814;28;20153;-76
2023/07/24 08:38:35;;;;;;;4.40;3.45;;;;;;;19.92;90.71;100211.97;4990643;28;20046;-77
2023/07/24 08:41:10;;;;;;;5.35;3.20;;;;;;;20.19;89.75;100216.06;4971697;28;20550;-76
2023/07/24 08:43:40;;;;;;;4.85;3.15;;;;;;;20.36;90.47;100222.72;4980237;28;20059;-77
2023/07/24 08:46:08;;;;;;;4.05;2.72;;;;;;;20.47;91.40;100213.78;4964723;28;20050;-76
2023/07/24 08:48:39;;;;;;;4.20;2.70;;;;;;;20.59;88.35;100204.75;4969240;28;20548;-76
2023/07/24 08:51:18;;;;;;;4.03;2.60;;;;;;;20.56;87.62;100198.81;4966453;28;20070;-76
2023/07/24 08:53:48;;;;;;;4.25;2.83;;;;;;;20.51;87.30;100201.88;4964600;28;20043;-76
2023/07/24 08:56:15;;;;;;;4.05;2.78;;;;;;;20.65;85.89;100192.69;4969825;28;20039;-75
2023/07/24 08:58:43;;;;;;;4.13;2.90;;;;;;;20.97;83.81;100190.97;4964784;28;20043;-76
2023/07/24 09:01:10;;;;;;;3.70;2.28;;;;;;;21.12;78.93;100199.56;4968787;28;20043;-76
2023/07/24 09:03:37;;;;;;;5.18;2.80;;;;;;;21.11;81.38;100193.34;4962949;28;20522;-75
2023/07/24 09:06:10;;;;;;;4.68;2.63;;;;;;;21.22;83.11;100187.06;4981194;28;20522;-75
2023/07/24 09:08:42;;;;;;;3.85;2.95;;;;;;;21.05;78.10;100185.84;4963143;28;20138;-75
2023/07/24 09:11:14;;;;;;;4.28;3.13;;;;;;;20.80;78.33;100190.59;4968474;28;20102;-76
2023/07/24 09:13:43;;;;;;;4.35;3.33;;;;;;;20.61;81.73;100181.38;4967649;28;20045;-75
2023/07/24 09:16:25;;;;;;;4.20;3.55;;;;;;;20.38;81.08;100201.16;4978663;28;20139;-75
2023/07/24 09:18:53;;;;;;;6.40;3.90;;;;;;;20.12;79.96;100194.28;4964760;28;20042;-75
2023/07/24 09:21:31;;;;;;;5.35;4.10;;;;;;;19.98;82.83;100191.91;4981885;28;20505;-74
2023/07/24 09:24:11;;;;;;;6.30;4.10;;;;;;;20.01;83.05;100186.28;4969860;28;20581;-75
2023/07/24 09:26:52;;;;;;;7.07;4.60;;;;;;;20.01;84.91;100187.13;4965238;28;21191;-74
2023/07/24 09:29:32;;;;;;;6.47;4.85;;;;;;;20.02;85.46;100190.66;4963384;28;20130;-74
2023/07/24 09:32:00;;;;;;;6.43;4.95;;;;;;;20.02;85.49;100179.94;4973933;28;20058;-74
2023/07/24 09:34:28;;;;;;;5.65;4.40;;;;;;;20.06;85.71;100181.41;4965207;28;20050;-74
2023/07/24 09:36:55;;;;;;;6.68;4.55;;;;;;;20.19;82.04;100181.25;4976050;28;20066;-74
2023/07/24 09:39:26;;;;;;;8.32;4.60;;;;;;;20.48;78.28;100170.84;4967444;28;20043;-74
2023/07/24 09:42:04;;;;;;;5.53;4.45;;;;;;;20.68;76.92;100163.00;4968268;28;20125;-74
2023/07/24 09:44:32;;;;;;;6.72;5.38;;;;;;;20.84;76.32;100153.69;4978293;28;20733;-75
2023/07/24 09:47:01;;;;;;;7.30;4.95;;;;;;;20.89;76.93;100149.63;4985992;28;20081;-74
2023/07/24 09:49:50;;;;;;;8.57;5.90;;;;;;;21.04;77.04;100150.16;4987416;28;20593;-75
2023/07/24 09:52:19;;;;;;;9.15;5.90;;;;;;;21.07;77.89;100136.50;4987742;28;20034;-74
2023/07/24 09:55:09;;;;;;;9.27;5.80;;;;;;;21.40;78.68;100131.00;5003247;28;20038;-74
2023/07/24 09:57:39;;;;;;;6.40;5.80;;;;;;;21.69;79.68;100127.63;4984400;28;20038;-75
2023/07/24 10:00:07;;;;;;;9.98;6.13;;;;;;;21.71;78.53;100129.22;4989800;28;20049;-75
2023/07/24 10:02:36;;;;;;;6.38;5.63;;;;;;;21.66;76.78;100123.41;4981682;28;20027;-74
2023/07/24 10:05:05;;;;;;;7.32;5.45;;;;;;;21.62;77.60;100105.03;4985174;28;20105;-75
2023/07/24 10:07:32;;;;;;;15.20;6.30;;;;;;;21.52;76.54;100105.81;4985406;28;20407;-75
2023/07/24 10:10:02;;;;;;;6.63;4.43;;;;;;;21.44;74.29;100110.16;4987675;28;20443;-74
2023/07/24 10:12:32;;;;;;;5.28;4.53;;;;;;;21.19;73.60;100098.91;4988586;28;20086;-74
2023/07/24 10:15:01;;;;;;;7.47;4.95;;;;;;;21.01;75.18;100099.50;4987326;28;20047;-75
2023/07/24 10:17:36;;;;;;;7.20;4.80;;;;;;;20.85;76.06;100102.69;4986827;28;20050;-75
2023/07/24 10:20:06;;;;;;;6.80;4.90;;;;;;;20.69;76.88;100102.22;4988826;28;20227;-75
2023/07/24 10:22:34;;;;;;;8.52;5.40;;;;;;;20.50;77.38;100119.84;4987818;28;20038;-74
2023/07/24 10:25:01;;;;;;;7.80;5.65;;;;;;;20.32;79.54;100112.38;4982130;28;20042;-75
2023/07/24 10:27:29;;;;;;;14.40;6.88;;;;;;;20.23;79.48;100117.63;4988063;28;20034;-75
2023/07/24 10:30:04;;;;;;;10.90;5.68;;;;;;;20.11;79.54;100116.84;4984902;28;20093;-74
2023/07/24 10:32:50;;;;;;;9.10;6.38;;;;;;;19.97;80.32;100110.78;4991799;28;20057;-74
2023/07/24 10:35:22;;;;;;;6.78;6.00;;;;;;;19.89;81.04;100131.13;4979387;28;20049;-74
2023/07/24 10:38:00;;;;;;;8.95;6.13;;;;;;;19.77;81.05;100139.13;4993230;28;20035;-74
2023/07/24 10:40:27;;;;;;;8.20;6.20;;;;;;;19.65;82.13;100134.75;4979845;28;20109;-74
2023/07/24 10:43:06;;;;;;;7.22;6.20;;;;;;;19.55;82.22;100143.50;4980228;28;20457;-75
2023/07/24 10:45:49;;;;;;;10.95;6.57;;;;;;;19.43;83.28;100160.50;4995193;28;20054;-74
2023/07/24 10:48:21;;;;;;;7.50;6.80;;;;;;;19.33;83.88;100155.00;5003535;28;20123;-75
2023/07/24 10:50:51;;;;;;;7.75;6.57;;;;;;;19.29;84.56;100155.38;5008121;28;20052;-75
2023/07/24 10:53:22;;;;;;;8.10;6.45;;;;;;;19.22;83.85;100155.88;5007480;28;20046;-74
2023/07/24 10:55:51;;;;;;;8.32;6.35;;;;;;;19.19;84.39;100161.44;5006990;28;20128;-75
2023/07/24 10:58:20;;;;;;;8.25;6.07;;;;;;;19.16;84.94;100159.03;5006491;28;20093;-75
2023/07/24 11:00:47;;;;;;;6.32;5.60;;;;;;;19.12;84.66;100165.56;5009071;28;20093;-75
2023/07/24 11:03:15;;;;;;;6.47;5.63;;;;;;;19.09;85.50;100172.00;5008731;28;20092;-75
2023/07/24 11:05:44;;;;;;;7.65;5.72;;;;;;;19.08;85.28;100170.28;4994132;28;20268;-74
2023/07/24 11:08:15;;;;;;;6.25;5.13;;;;;;;19.05;84.45;100169.69;4988365;28;20113;-74
2023/07/24 11:10:47;;;;;;;12.77;5.55;;;;;;;19.01;84.36;100173.53;5009872;28;20700;-75
2023/07/24 11:13:17;;;;;;;6.35;5.03;;;;;;;18.95;84.25;100177.53;4984815;28;20060;-75
2023/07/24 11:15:45;;;;;;;6.15;5.38;;;;;;;18.93;85.25;100176.78;5012088;28;20046;-75
2023/07/24 11:18:13;;;;;;;7.65;5.97;;;;;;;18.96;86.72;100167.72;5010985;28;20038;-74
2023/07/24 11:20:54;;;;;;;6.90;6.28;;;;;;;19.07;87.71;100173.09;5012210;28;20053;-75
2023/07/24 11:23:23;;;;;;;6.43;5.75;;;;;;;19.21;87.85;100169.34;4976664;28;20120;-74
2023/07/24 11:25:53;;;;;;;8.93;6.10;;;;;;;19.39;87.45;100162.56;5010351;28;20042;-74